Time;durP1;ratioP1;P1;durP2;ratioP2;P2;SDS_P1;SDS_P2;PMS_P1;PMS_P2;Temp;Humidity;BMP_temperature;BMP_pressure;BME280_temperature;BME280_humidity;BME280_pressure;Samples;Min_cycle;Max_cycle;Signal;HPM_P1;HPM_P2
2024/02/07 00:01:11;;;;;;;0.25;0.25;;;;;;;8.61;100.00;98561.84;5045511;28;20110;-59
2024/02/07 00:03:38;;;;;;;0.25;0.25;;;;;;;8.65;100.00;98562.97;5037510;28;20048;-59
2024/02/07 00:06:05;;;;;;;0.30;0.30;;;;;;;8.72;100.00;98571.63;5041013;28;20744;-59
2024/02/07 00:08:32;;;;;;;0.20;0.20;;;;;;;8.69;100.00;98564.13;5038429;28;20048;-59
2024/02/07 00:11:01;;;;;;;0.25;0.25;;;;;;;8.69;100.00;98569.47;5033738;28;20040;-59
2024/02/07 00:13:28;;;;;;;0.30;0.30;;;;;;;8.68;100.00;98567.03;5045212;28;20103;-59
2024/02/07 00:15:55;;;;;;;0.30;0.30;;;;;;;8.69;100.00;98561.44;5036186;28;20099;-59
2024/02/07 00:18:22;;;;;;;0.30;0.30;;;;;;;8.71;100.00;98561.19;5042046;28;20057;-59
2024/02/07 00:20:49;;;;;;;0.30;0.30;;;;;;;8.68;100.00;98565.16;5017347;28;20067;-59
2024/02/07 00:23:16;;;;;;;0.30;0.30;;;;;;;8.73;100.00;98565.22;5025280;28;20045;-59
2024/02/07 00:25:43;;;;;;;0.30;0.30;;;;;;;8.68;100.00;98559.81;5037548;28;20048;-59
2024/02/07 00:28:12;;;;;;;0.40;0.40;;;;;;;8.72;100.00;98550.25;5028414;28;20060;-59
2024/02/07 00:30:39;;;;;;;0.30;0.30;;;;;;;8.79;100.00;98547.41;5043283;28;20053;-59
2024/02/07 00:33:06;;;;;;;0.20;0.20;;;;;;;8.85;100.00;98549.09;5042532;28;20152;-59
2024/02/07 00:35:33;;;;;;;0.20;0.20;;;;;;;8.89;100.00;98544.06;5040125;28;20049;-60
2024/02/07 00:38:00;;;;;;;0.28;0.28;;;;;;;8.83;100.00;98543.97;5026205;28;20056;-59
2024/02/07 00:40:29;;;;;;;0.30;0.30;;;;;;;8.83;100.00;98543.19;5032823;28;20501;-59
2024/02/07 00:42:56;;;;;;;0.30;0.30;;;;;;;8.85;100.00;98539.22;5034104;28;20586;-59
2024/02/07 00:45:24;;;;;;;0.35;0.35;;;;;;;8.79;100.00;98523.38;5037618;28;20068;-57
2024/02/07 00:47:51;;;;;;;0.20;0.20;;;;;;;8.68;100.00;98530.44;5036160;28;20068;-56
2024/02/07 00:50:18;;;;;;;0.30;0.30;;;;;;;8.70;100.00;98531.00;5043885;28;20044;-57
2024/02/07 00:52:45;;;;;;;0.30;0.30;;;;;;;8.68;100.00;98530.44;5037611;28;20094;-58
2024/02/07 00:55:12;;;;;;;0.20;0.20;;;;;;;8.57;100.00;98528.69;5038316;28;20567;-57
2024/02/07 00:57:40;;;;;;;0.30;0.30;;;;;;;8.60;100.00;98518.31;5040071;28;20049;-57
2024/02/07 01:00:12;;;;;;;0.30;0.30;;;;;;;8.61;100.00;98508.44;5039115;28;20457;-57
2024/02/07 01:02:41;;;;;;;0.20;0.20;;;;;;;8.57;100.00;98510.00;5041000;28;20127;-57
2024/02/07 01:05:09;;;;;;;0.30;0.30;;;;;;;8.55;100.00;98493.41;5037902;28;20069;-57
2024/02/07 01:07:37;;;;;;;0.30;0.30;;;;;;;8.61;100.00;98495.06;5038142;28;20567;-58
2024/02/07 01:10:04;;;;;;;0.22;0.22;;;;;;;8.56;100.00;98497.66;5041113;28;20484;-58
2024/02/07 01:12:32;;;;;;;0.30;0.30;;;;;;;8.64;100.00;98499.94;5026886;28;20573;-57
2024/02/07 01:14:59;;;;;;;0.30;0.30;;;;;;;8.72;100.00;98499.50;5026183;28;20045;-58
2024/02/07 01:17:26;;;;;;;0.30;0.30;;;;;;;8.75;100.00;98482.97;5036485;28;20510;-57
2024/02/07 01:19:54;;;;;;;0.30;0.30;;;;;;;8.75;100.00;98490.97;5022379;28;20549;-58
2024/02/07 01:22:22;;;;;;;0.30;0.30;;;;;;;8.79;100.00;98478.75;5028987;28;20045;-58
2024/02/07 01:24:49;;;;;;;0.30;0.30;;;;;;;8.73;100.00;98479.72;5036373;28;20038;-58
2024/02/07 01:27:16;;;;;;;0.40;0.40;;;;;;;8.67;100.00;98480.75;5043533;28;20442;-58
2024/02/07 01:29:43;;;;;;;0.20;0.20;;;;;;;8.69;100.00;98480.50;5037636;28;20118;-58
2024/02/07 01:32:11;;;;;;;0.30;0.30;;;;;;;8.68;100.00;98465.50;5038042;28;20044;-58
2024/02/07 01:34:38;;;;;;;0.20;0.20;;;;;;;8.71;100.00;98471.19;5039285;28;20044;-57
2024/02/07 01:37:07;;;;;;;0.40;0.40;;;;;;;8.72;100.00;98478.13;5041775;28;20114;-58
2024/02/07 01:39:36;;;;;;;0.30;0.30;;;;;;;8.77;100.00;98467.50;5023310;28;20048;-58
2024/02/07 01:42:03;;;;;;;0.20;0.20;;;;;;;8.78;100.00;98477.13;5029686;28;20049;-58
2024/02/07 01:44:31;;;;;;;0.20;0.20;;;;;;;8.79;100.00;98472.59;5038378;28;20107;-58
2024/02/07 01:47:13;;;;;;;0.30;0.30;;;;;;;8.79;100.00;98478.75;5041266;28;20056;-58
2024/02/07 01:49:41;;;;;;;0.30;0.30;;;;;;;8.79;100.00;98470.75;5044067;28;20050;-58
2024/02/07 01:52:10;;;;;;;0.20;0.20;;;;;;;8.79;100.00;98473.41;5024039;28;20053;-58
2024/02/07 01:54:38;;;;;;;0.30;0.30;;;;;;;8.79;100.00;98461.91;5022831;28;20056;-58
2024/02/07 01:57:06;;;;;;;0.22;0.22;;;;;;;8.80;100.00;98468.88;5043754;28;20052;-57
2024/02/07 01:59:33;;;;;;;0.30;0.30;;;;;;;8.77;100.00;98464.84;5038591;28;20070;-58
2024/02/07 02:02:00;;;;;;;0.30;0.30;;;;;;;8.81;100.00;98473.13;5023324;28;20102;-59
2024/02/07 02:04:28;;;;;;;0.30;0.30;;;;;;;8.74;100.00;98457.31;5036771;28;20107;-58
2024/02/07 02:06:56;;;;;;;0.30;0.30;;;;;;;8.82;100.00;98456.88;5042552;28;20053;-58
2024/02/07 02:09:25;;;;;;;0.22;0.22;;;;;;;8.73;100.00;98453.00;5021477;28;20050;-58
2024/02/07 02:11:52;;;;;;;0.30;0.30;;;;;;;8.72;100.00;98446.06;5039560;28;20360;-58
2024/02/07 02:14:19;;;;;;;0.30;0.30;;;;;;;8.63;100.00;98444.88;5035161;28;20081;-58
2024/02/07 02:16:46;;;;;;;0.30;0.30;;;;;;;8.57;100.00;98416.50;5036280;28;20051;-59
2024/02/07 02:19:17;;;;;;;0.30;0.30;;;;;;;8.70;100.00;98431.34;5040996;28;20057;-58
2024/02/07 02:21:52;;;;;;;0.20;0.20;;;;;;;8.64;100.00;98427.81;5009494;28;20057;-58
2024/02/07 02:24:30;;;;;;;0.22;0.22;;;;;;;8.65;100.00;98413.38;5015362;28;20053;-58
2024/02/07 02:27:12;;;;;;;0.30;0.30;;;;;;;8.70;100.00;98388.59;5042391;28;20088;-58
2024/02/07 02:29:42;;;;;;;0.20;0.20;;;;;;;8.89;100.00;98418.47;5032909;28;20500;-58
2024/02/07 02:32:09;;;;;;;0.20;0.20;;;;;;;8.73;100.00;98394.25;5039162;28;20129;-58
2024/02/07 02:34:37;;;;;;;0.30;0.30;;;;;;;8.78;100.00;98396.16;5038521;28;20041;-58
2024/02/07 02:37:05;;;;;;;0.20;0.20;;;;;;;8.78;100.00;98396.97;5023404;28;20061;-58
2024/02/07 02:39:32;;;;;;;0.30;0.30;;;;;;;8.89;100.00;98397.91;5039618;28;20068;-58
2024/02/07 02:42:00;;;;;;;0.30;0.30;;;;;;;8.87;100.00;98383.19;5038151;28;20036;-58
2024/02/07 02:44:27;;;;;;;0.30;0.30;;;;;;;8.90;100.00;98383.47;5038484;28;20041;-58
2024/02/07 02:46:56;;;;;;;0.20;0.20;;;;;;;8.85;100.00;98376.19;5042480;28;20360;-58
2024/02/07 02:49:24;;;;;;;0.30;0.30;;;;;;;8.88;100.00;98368.75;5040661;28;20561;-58
2024/02/07 02:51:51;;;;;;;0.20;0.20;;;;;;;8.92;100.00;98372.53;5029129;28;20043;-58
2024/02/07 02:54:18;;;;;;;0.20;0.20;;;;;;;8.84;100.00;98369.25;5038582;28;20518;-58
2024/02/07 02:56:46;;;;;;;0.20;0.20;;;;;;;8.94;100.00;98373.09;5031800;28;20053;-58
2024/02/07 02:59:14;;;;;;;0.30;0.30;;;;;;;8.87;100.00;98346.56;5039360;28;20410;-58
2024/02/07 03:01:41;;;;;;;0.30;0.30;;;;;;;8.82;100.00;98355.34;5015867;28;20114;-58
2024/02/07 03:04:15;;;;;;;0.40;0.40;;;;;;;8.86;100.00;98366.31;5037443;28;20049;-58
2024/02/07 03:06:58;;;;;;;0.30;0.30;;;;;;;8.88;100.00;98363.41;5035945;28;20397;-58
2024/02/07 03:09:26;;;;;;;0.30;0.30;;;;;;;8.91;100.00;98360.22;5038512;28;20037;-58
2024/02/07 03:11:54;;;;;;;0.30;0.30;;;;;;;8.83;100.00;98354.25;5045620;28;20210;-58
2024/02/07 03:14:21;;;;;;;0.30;0.30;;;;;;;8.81;100.00;98352.91;5034749;28;20053;-58
2024/02/07 03:16:49;;;;;;;0.20;0.20;;;;;;;8.75;100.00;98351.25;5037474;28;20051;-59
2024/02/07 03:19:17;;;;;;;0.30;0.30;;;;;;;8.73;100.00;98346.16;5042185;28;20045;-58
2024/02/07 03:21:45;;;;;;;0.30;0.30;;;;;;;8.78;100.00;98354.22;5035376;28;20053;-58
2024/02/07 03:24:12;;;;;;;0.30;0.30;;;;;;;8.85;100.00;98338.00;5036814;28;20041;-58
2024/02/07 03:26:39;;;;;;;0.30;0.30;;;;;;;8.82;100.00;98333.16;5025084;28;20067;-58
2024/02/07 03:29:08;;;;;;;0.30;0.30;;;;;;;8.76;100.00;98324.28;5020696;28;20052;-58
2024/02/07 03:31:37;;;;;;;0.30;0.30;;;;;;;8.72;100.00;98312.50;5033444;28;20049;-58
2024/02/07 03:34:04;;;;;;;0.20;0.20;;;;;;;8.67;100.00;98304.44;5034361;28;20037;-58
2024/02/07 03:36:32;;;;;;;0.30;0.30;;;;;;;8.66;100.00;98297.44;5040057;28;20068;-58
2024/02/07 03:39:00;;;;;;;0.30;0.30;;;;;;;8.68;100.00;98279.31;5041433;28;20557;-58
2024/02/07 03:41:27;;;;;;;0.20;0.20;;;;;;;8.67;100.00;98272.38;5026487;28;20575;-58
2024/02/07 03:43:54;;;;;;;0.20;0.20;;;;;;;8.61;100.00;98263.50;5033190;28;20158;-58
2024/02/07 03:46:23;;;;;;;0.30;0.30;;;;;;;8.67;100.00;98277.72;5031610;28;20116;-58
2024/02/07 03:48:50;;;;;;;0.25;0.25;;;;;;;8.56;100.00;98270.66;5034198;28;20049;-58
2024/02/07 03:51:26;;;;;;;0.30;0.30;;;;;;;8.52;100.00;98266.88;5035654;28;20059;-59
2024/02/07 03:53:55;;;;;;;0.20;0.20;;;;;;;8.61;100.00;98262.69;5037109;28;20044;-58
2024/02/07 03:56:22;;;;;;;0.20;0.20;;;;;;;8.59;100.00;98254.94;5034960;28;20535;-58
2024/02/07 03:58:49;;;;;;;0.20;0.20;;;;;;;8.60;100.00;98250.41;5042157;28;20395;-58
2024/02/07 04:01:18;;;;;;;0.20;0.20;;;;;;;8.53;100.00;98255.13;5036114;28;20053;-58
2024/02/07 04:03:47;;;;;;;0.30;0.30;;;;;;;8.56;100.00;98249.28;5020202;28;20154;-58
2024/02/07 04:06:15;;;;;;;0.30;0.30;;;;;;;8.54;100.00;98246.09;5038393;28;20045;-59
2024/02/07 04:08:42;;;;;;;0.30;0.30;;;;;;;8.43;100.00;98224.59;5032204;28;20069;-58
2024/02/07 05:16:36;;;;;;;0.30;0.30;;;;;;;8.54;100.00;98209.50;5041332;28;20040;-58
2024/02/07 05:19:03;;;;;;;0.30;0.30;;;;;;;8.52;100.00;98198.25;5023022;28;20045;-58
2024/02/07 05:21:30;;;;;;;0.30;0.30;;;;;;;8.61;100.00;98195.91;5041814;28;20049;-58
2024/02/07 05:23:58;;;;;;;0.30;0.30;;;;;;;8.61;100.00;98185.22;5041648;28;20524;-59
2024/02/07 05:26:25;;;;;;;0.30;0.30;;;;;;;8.51;100.00;98183.31;5040881;28;20103;-58
2024/02/07 05:28:52;;;;;;;0.22;0.22;;;;;;;8.63;100.00;98188.44;5035945;28;20044;-58
2024/02/07 05:31:19;;;;;;;0.20;0.20;;;;;;;8.57;100.00;98186.81;5040259;28;20049;-58
2024/02/07 05:33:47;;;;;;;0.22;0.22;;;;;;;8.63;100.00;98186.56;5037548;28;20045;-58
2024/02/07 05:36:15;;;;;;;0.30;0.30;;;;;;;8.64;100.00;98185.53;5028359;28;20076;-58
2024/02/07 05:38:43;;;;;;;0.30;0.30;;;;;;;8.70;100.00;98191.72;5014445;28;20041;-58
2024/02/07 05:41:10;;;;;;;0.20;0.20;;;;;;;8.65;100.00;98170.31;5037009;28;20055;-59
2024/02/07 05:43:37;;;;;;;0.30;0.30;;;;;;;8.63;100.00;98159.06;5047843;28;20051;-58
2024/02/07 05:46:04;;;;;;;0.30;0.30;;;;;;;8.57;100.00;98166.25;5038933;28;20033;-59
2024/02/07 05:48:31;;;;;;;0.22;0.22;;;;;;;8.61;100.00;98166.53;5041232;28;20069;-58
2024/02/07 05:51:00;;;;;;;0.30;0.30;;;;;;;8.70;100.00;98169.53;5040918;28;20049;-58
2024/02/07 05:53:27;;;;;;;0.30;0.30;;;;;;;8.68;100.00;98159.09;5038657;28;20041;-58
2024/02/07 05:55:54;;;;;;;0.25;0.25;;;;;;;8.64;100.00;98161.50;5034882;28;20044;-58
2024/02/07 05:58:22;;;;;;;0.30;0.30;;;;;;;8.69;100.00;98150.03;5042589;28;20037;-58
2024/02/07 06:00:49;;;;;;;0.25;0.25;;;;;;;8.71;100.00;98142.59;5040298;28;20104;-59
2024/02/07 06:03:17;;;;;;;0.30;0.30;;;;;;;8.64;100.00;98147.34;5040660;28;20045;-59
2024/02/07 06:05:44;;;;;;;0.30;0.30;;;;;;;8.58;100.00;98143.00;5040450;28;20534;-59
2024/02/07 06:08:13;;;;;;;0.20;0.20;;;;;;;8.71;100.00;98139.91;5035402;28;20056;-59
2024/02/07 06:10:41;;;;;;;0.30;0.30;;;;;;;8.60;100.00;98143.56;5034543;28;20037;-58
2024/02/07 06:13:08;;;;;;;0.30;0.30;;;;;;;8.64;100.00;98142.00;5037376;28;20075;-58
2024/02/07 06:15:36;;;;;;;0.30;0.30;;;;;;;8.57;100.00;98130.72;5046955;28;20041;-58
2024/02/07 06:18:03;;;;;;;0.40;0.40;;;;;;;8.68;100.00;98135.06;5036967;28;20070;-58
2024/02/07 06:20:30;;;;;;;0.22;0.22;;;;;;;8.69;100.00;98138.56;5036005;28;20132;-59
2024/02/07 06:22:58;;;;;;;0.30;0.30;;;;;;;8.70;100.00;98138.28;5041491;28;20056;-58
2024/02/07 06:25:28;;;;;;;0.30;0.30;;;;;;;8.71;100.00;98144.44;5034239;28;20052;-58
2024/02/07 06:27:55;;;;;;;0.20;0.20;;;;;;;8.72;100.00;98136.16;5025212;28;20041;-58
2024/02/07 06:30:23;;;;;;;0.38;0.38;;;;;;;8.67;100.00;98128.13;5014291;28;20111;-58
2024/02/07 06:32:50;;;;;;;0.20;0.20;;;;;;;8.66;100.00;98139.84;5039343;28;20040;-59
2024/02/07 06:35:17;;;;;;;0.30;0.30;;;;;;;8.68;100.00;98131.59;5040944;28;20041;-58
2024/02/07 06:37:44;;;;;;;0.30;0.30;;;;;;;8.67;100.00;98133.47;5038473;28;20561;-58
2024/02/07 06:40:12;;;;;;;0.28;0.28;;;;;;;8.69;100.00;98130.56;5035900;28;20048;-57
2024/02/07 06:42:40;;;;;;;0.30;0.30;;;;;;;8.73;100.00;98132.44;5031339;28;20069;-58
2024/02/07 06:45:09;;;;;;;0.30;0.30;;;;;;;8.71;100.00;98129.22;5037638;28;20037;-59
2024/02/07 06:47:37;;;;;;;0.20;0.20;;;;;;;8.71;100.00;98129.22;5036825;28;20050;-59
2024/02/07 06:50:04;;;;;;;0.40;0.40;;;;;;;8.71;100.00;98134.56;5032668;28;20041;-58
2024/02/07 06:52:31;;;;;;;0.30;0.30;;;;;;;8.73;100.00;98128.94;5038474;28;20041;-59
2024/02/07 06:54:59;;;;;;;0.30;0.30;;;;;;;8.73;100.00;98132.44;5042840;28;20045;-59
2024/02/07 06:57:26;;;;;;;0.30;0.30;;;;;;;8.71;100.00;98129.22;5035675;28;20510;-59
2024/02/07 06:59:54;;;;;;;0.20;0.20;;;;;;;8.75;100.00;98132.97;5037141;28;20603;-59
2024/02/07 07:02:21;;;;;;;0.28;0.28;;;;;;;8.78;100.00;98129.78;5011035;28;20067;-59
2024/02/07 07:04:49;;;;;;;0.30;0.30;;;;;;;8.74;100.00;98123.38;5034638;28;20042;-60
2024/02/07 07:07:16;;;;;;;0.30;0.30;;;;;;;8.79;100.00;98120.72;5038176;28;20045;-60
2024/02/07 07:09:45;;;;;;;0.28;0.28;;;;;;;8.76;100.00;98126.59;5035466;28;20071;-59
2024/02/07 07:12:12;;;;;;;0.20;0.20;;;;;;;8.75;100.00;98122.28;5030948;28;20100;-60
2024/02/07 07:14:40;;;;;;;0.40;0.40;;;;;;;8.68;100.00;98112.91;5039453;28;20041;-60
2024/02/07 07:17:09;;;;;;;0.20;0.20;;;;;;;8.72;100.00;98106.78;5031512;28;20148;-59
2024/02/07 07:19:36;;;;;;;0.30;0.30;;;;;;;8.70;100.00;98111.56;5039551;28;20098;-59
2024/02/07 07:22:06;;;;;;;0.30;0.30;;;;;;;8.71;100.00;98107.84;5024928;28;20419;-60
2024/02/07 07:24:33;;;;;;;0.30;0.30;;;;;;;8.79;100.00;98107.38;5039626;28;20881;-60
2024/02/07 07:27:00;;;;;;;0.30;0.30;;;;;;;8.72;100.00;98104.13;5029502;28;20527;-60
2024/02/07 07:29:28;;;;;;;0.25;0.25;;;;;;;8.84;100.00;98104.72;5036033;28;20037;-59
2024/02/07 07:31:55;;;;;;;0.30;0.30;;;;;;;8.72;100.00;98104.13;5024924;28;20385;-60
2024/02/07 07:34:24;;;;;;;0.30;0.30;;;;;;;8.76;100.00;98102.53;5021331;28;20786;-59
2024/02/07 07:36:52;;;;;;;0.20;0.20;;;;;;;8.79;100.00;98098.56;5019183;28;20048;-59
2024/02/07 07:39:19;;;;;;;0.20;0.20;;;;;;;8.81;100.00;98088.38;5019785;28;20507;-59
2024/02/07 07:41:46;;;;;;;0.20;0.20;;;;;;;8.82;100.00;98077.44;5034017;28;20555;-60
2024/02/07 07:44:14;;;;;;;0.30;0.30;;;;;;;8.82;100.00;98088.13;5039629;28;20065;-59
2024/02/07 07:46:43;;;;;;;0.30;0.30;;;;;;;8.82;100.00;98096.16;5030337;28;20562;-59
2024/02/07 07:49:10;;;;;;;0.30;0.30;;;;;;;8.88;100.00;98096.19;5021284;28;20067;-59
2024/02/07 07:51:39;;;;;;;0.30;0.30;;;;;;;8.84;100.00;98094.03;5037278;28;20466;-59
2024/02/07 07:54:06;;;;;;;0.30;0.30;;;;;;;8.95;100.00;98104.78;5039976;28;20507;-59
2024/02/07 07:56:33;;;;;;;0.30;0.30;;;;;;;8.90;100.00;98104.75;5034770;28;20137;-59
2024/02/07 07:59:01;;;;;;;0.25;0.25;;;;;;;8.90;100.00;98099.41;5029767;28;20046;-59
2024/02/07 08:01:28;;;;;;;0.30;0.30;;;;;;;8.99;100.00;98109.34;5033811;28;20041;-59
2024/02/07 08:03:55;;;;;;;0.30;0.30;;;;;;;9.06;100.00;98085.88;5030587;28;20055;-58
2024/02/07 08:06:22;;;;;;;0.20;0.20;;;;;;;9.15;100.00;98106.75;5038410;28;20045;-59
2024/02/07 08:08:51;;;;;;;0.30;0.30;;;;;;;9.15;100.00;98102.19;5036133;28;20041;-59
2024/02/07 08:11:18;;;;;;;0.30;0.30;;;;;;;9.18;100.00;98107.03;5032461;28;20052;-58
2024/02/07 08:13:45;;;;;;;0.20;0.20;;;;;;;9.18;100.00;98107.03;5042908;28;20045;-59
2024/02/07 08:16:14;;;;;;;0.25;0.25;;;;;;;9.19;100.00;98097.16;5033363;28;20511;-58
2024/02/07 08:18:42;;;;;;;0.30;0.30;;;;;;;9.24;100.00;98111.34;5021130;28;20295;-59
2024/02/07 08:21:09;;;;;;;0.20;0.20;;;;;;;9.28;100.00;98111.63;5032939;28;20536;-59
2024/02/07 08:23:36;;;;;;;0.20;0.20;;;;;;;9.26;100.00;98119.09;5033383;28;20471;-58
2024/02/07 08:26:06;;;;;;;0.20;0.20;;;;;;;9.26;100.00;98129.78;5035109;28;20076;-57
2024/02/07 08:28:33;;;;;;;0.20;0.20;;;;;;;9.32;100.00;98128.75;5041745;28;20052;-57
2024/02/07 08:31:00;;;;;;;0.30;0.30;;;;;;;9.62;100.00;98136.09;5038324;28;20060;-59
2024/02/07 08:33:27;;;;;;;0.20;0.20;;;;;;;9.53;100.00;98128.81;5041938;28;20122;-59
2024/02/07 08:35:54;;;;;;;0.30;0.30;;;;;;;9.55;100.00;98137.41;5037563;28;20048;-59
2024/02/07 08:38:21;;;;;;;0.20;0.20;;;;;;;9.35;100.00;98143.47;5038572;28;20129;-59
2024/02/07 08:40:51;;;;;;;0.20;0.20;;;;;;;9.33;100.00;98141.03;5042387;28;20053;-58
2024/02/07 08:43:19;;;;;;;0.20;0.20;;;;;;;9.20;100.00;98150.34;5035257;28;20041;-58
2024/02/07 08:45:46;;;;;;;0.20;0.20;;;;;;;9.21;100.00;98159.16;5038365;28;20124;-59
2024/02/07 08:48:14;;;;;;;0.20;0.20;;;;;;;9.10;100.00;98157.53;5043911;28;20817;-59
2024/02/07 08:50:42;;;;;;;0.20;0.20;;;;;;;9.00;100.00;98159.06;5045097;28;20045;-59
2024/02/07 08:53:10;;;;;;;0.10;0.10;;;;;;;8.13;100.00;98166.34;5026819;28;20045;-59
2024/02/07 08:55:37;;;;;;;0.30;0.30;;;;;;;7.66;100.00;98176.78;5050891;28;20144;-59
2024/02/07 08:58:06;;;;;;;0.20;0.20;;;;;;;7.66;100.00;98174.94;5039720;28;20048;-59
2024/02/07 09:00:36;;;;;;;0.20;0.20;;;;;;;7.48;100.00;98175.25;5041344;28;20051;-59
2024/02/07 09:03:03;;;;;;;;;;;;;;;7.18;100.00;98178.31;5035758;28;20523;-59
2024/02/07 09:05:30;;;;;;;0.30;0.30;;;;;;;7.19;100.00;98185.25;5041449;28;19928;-58
2024/02/07 09:07:57;;;;;;;0.25;0.25;;;;;;;7.00;100.00;98180.22;5022692;28;20549;-58
2024/02/07 09:10:25;;;;;;;0.30;0.30;;;;;;;6.99;100.00;98183.94;5036621;28;20049;-61
2024/02/07 09:12:53;;;;;;;0.30;0.30;;;;;;;6.80;100.00;98193.22;5028030;28;20060;-59
2024/02/07 09:15:22;;;;;;;0.30;0.30;;;;;;;6.89;100.00;98199.78;5022008;28;20045;-60
2024/02/07 09:17:51;;;;;;;0.30;0.30;;;;;;;6.79;100.00;98199.59;5033460;28;20081;-58
2024/02/07 09:20:18;;;;;;;0.20;0.20;;;;;;;6.79;100.00;98199.59;5037228;28;20044;-59
2024/02/07 09:22:45;;;;;;;0.30;0.30;;;;;;;6.57;100.00;98192.34;5045491;28;20037;-57
2024/02/07 09:25:12;;;;;;;0.30;0.30;;;;;;;6.61;100.00;98204.09;5040361;28;20053;-57
2024/02/07 09:27:40;;;;;;;0.30;0.30;;;;;;;6.53;100.00;98201.03;5040246;28;20498;-57
2024/02/07 09:30:10;;;;;;;0.30;0.30;;;;;;;6.55;100.00;98193.63;5042385;28;20041;-58
2024/02/07 09:32:37;;;;;;;0.40;0.40;;;;;;;6.55;100.00;98194.44;5044341;28;20044;-59
2024/02/07 09:35:06;;;;;;;0.30;0.30;;;;;;;6.38;100.00;98196.28;5041122;28;20052;-59
2024/02/07 09:37:33;;;;;;;0.30;0.30;;;;;;;6.42;100.00;98195.56;5038248;28;20045;-59
2024/02/07 09:40:00;;;;;;;0.30;0.30;;;;;;;6.41;100.00;98199.25;5034900;28;20480;-58
2024/02/07 09:42:27;;;;;;;0.30;0.30;;;;;;;6.61;100.00;98198.78;5029578;28;20053;-58
2024/02/07 09:44:54;;;;;;;0.40;0.40;;;;;;;6.59;100.00;98194.75;5021249;28;20516;-58
2024/02/07 09:47:22;;;;;;;0.30;0.30;;;;;;;6.51;100.00;98200.47;5042625;28;20053;-58
2024/02/07 09:49:49;;;;;;;0.30;0.30;;;;;;;6.44;100.00;98196.13;5036071;28;20045;-58
2024/02/07 09:52:17;;;;;;;0.30;0.30;;;;;;;6.36;100.00;98188.50;5036725;28;20057;-58
2024/02/07 09:54:46;;;;;;;0.38;0.38;;;;;;;6.24;100.00;98187.78;5038562;28;20048;-58
2024/02/07 09:57:13;;;;;;;0.35;0.35;;;;;;;6.52;100.00;98189.59;5038442;28;20428;-59
2024/02/07 09:59:40;;;;;;;0.30;0.30;;;;;;;6.51;100.00;98185.31;5041361;28;20137;-59
2024/02/07 10:02:10;;;;;;;0.30;0.30;;;;;;;6.55;100.00;98191.78;5027252;28;20134;-59
2024/02/07 10:04:39;;;;;;;0.30;0.30;;;;;;;6.46;100.00;98187.88;5022010;28;20107;-58
2024/02/07 10:07:09;;;;;;;0.40;0.40;;;;;;;6.32;100.00;98184.75;5034051;28;20443;-59
2024/02/07 10:09:38;;;;;;;0.38;0.38;;;;;;;6.38;100.00;98182.97;5034035;28;20040;-58
2024/02/07 10:12:08;;;;;;;0.30;0.30;;;;;;;6.43;100.00;98197.16;5035376;28;20037;-58
2024/02/07 10:14:35;;;;;;;0.32;0.32;;;;;;;6.32;100.00;98194.59;5039762;28;20064;-58
2024/02/07 10:17:04;;;;;;;0.35;0.35;;;;;;;6.12;100.00;98190.50;5039412;28;20140;-58
2024/02/07 10:19:32;;;;;;;0.30;0.30;;;;;;;6.14;100.00;98199.06;5023708;28;20080;-58
2024/02/07 10:21:59;;;;;;;0.40;0.40;;;;;;;6.06;100.00;98196.78;5032030;28;20056;-58
2024/02/07 10:24:29;;;;;;;0.32;0.32;;;;;;;6.13;100.00;98194.78;5027058;28;20099;-58
2024/02/07 10:26:58;;;;;;;0.30;0.30;;;;;;;5.94;100.00;98194.19;5035255;28;20064;-58
2024/02/07 10:29:26;;;;;;;0.30;0.30;;;;;;;5.98;100.00;98207.81;5022655;28;20041;-58
2024/02/07 10:31:54;;;;;;;0.40;0.40;;;;;;;5.82;100.00;98199.50;5031302;28;20041;-58
2024/02/07 10:34:21;;;;;;;0.30;0.30;;;;;;;5.75;100.00;98206.00;5036867;28;20048;-59
2024/02/07 10:36:56;;;;;;;0.30;0.30;;;;;;;5.88;100.00;98204.91;5037925;28;20048;-59
2024/02/07 10:39:23;;;;;;;0.32;0.32;;;;;;;5.74;100.00;98207.84;5041412;28;20048;-61
2024/02/07 10:41:51;;;;;;;0.40;0.40;;;;;;;5.82;100.00;98202.16;5028459;28;20045;-59
2024/02/07 10:44:19;;;;;;;0.32;0.32;;;;;;;5.78;100.00;98213.50;5033307;28;20095;-59
2024/02/07 10:46:46;;;;;;;0.40;0.40;;;;;;;5.80;100.00;98204.25;5037315;28;20050;-59
2024/02/07 10:49:13;;;;;;;0.40;0.40;;;;;;;5.70;100.00;98203.25;5036826;28;20083;-59
2024/02/07 10:51:40;;;;;;;0.40;0.40;;;;;;;5.48;100.00;98209.19;5042736;28;20113;-59
2024/02/07 10:54:07;;;;;;;0.40;0.40;;;;;;;5.70;100.00;98209.38;5039519;28;20164;-60
2024/02/07 10:56:35;;;;;;;0.43;0.43;;;;;;;5.55;100.00;98206.41;5032823;28;20498;-59
2024/02/07 10:59:04;;;;;;;0.50;0.50;;;;;;;5.46;100.00;98213.13;5030386;28;20049;-59
2024/02/07 11:01:33;;;;;;;0.40;0.40;;;;;;;5.44;100.00;98207.22;5038942;28;20053;-59
2024/02/07 11:04:00;;;;;;;0.40;0.40;;;;;;;5.35;100.00;98207.59;5023872;28;20095;-59
2024/02/07 11:06:27;;;;;;;0.30;0.30;;;;;;;5.25;100.00;98212.69;5017243;28;20095;-58
2024/02/07 11:08:55;;;;;;;0.40;0.40;;;;;;;5.24;100.00;98216.41;5038598;28;20473;-58
2024/02/07 11:11:23;;;;;;;0.43;0.43;;;;;;;5.45;100.00;98203.53;5033768;28;20547;-58
2024/02/07 11:13:52;;;;;;;0.40;0.40;;;;;;;5.55;100.00;98203.75;5032607;28;20504;-57
2024/02/07 11:16:19;;;;;;;0.30;0.30;;;;;;;5.39;100.00;98208.75;5039059;28;20056;-58
2024/02/07 11:18:48;;;;;;;0.30;0.30;;;;;;;5.17;100.00;98215.69;5016872;28;20049;-59
2024/02/07 11:21:19;;;;;;;0.40;0.40;;;;;;;5.32;100.00;98213.38;5019799;28;20041;-59
2024/02/07 11:23:47;;;;;;;0.40;0.40;;;;;;;5.33;100.00;98214.97;5030290;28;20572;-60
2024/02/07 11:26:14;;;;;;;0.43;0.43;;;;;;;5.48;100.00;98209.19;5023624;28;20048;-60
2024/02/07 11:28:41;;;;;;;0.40;0.40;;;;;;;5.32;100.00;98212.56;5021428;28;20044;-60
2024/02/07 11:31:09;;;;;;;0.38;0.38;;;;;;;5.47;100.00;98210.22;5015717;28;20056;-60
2024/02/07 11:33:37;;;;;;;0.40;0.40;;;;;;;5.45;100.00;98207.00;5033606;28;20130;-59
2024/02/07 11:36:16;;;;;;;0.40;0.40;;;;;;;5.47;100.00;98212.88;5030911;28;20045;-59
2024/02/07 11:38:47;;;;;;;0.30;0.30;;;;;;;5.40;100.00;98210.34;5041164;28;20118;-60
2024/02/07 11:41:19;;;;;;;0.30;0.30;;;;;;;5.31;100.00;98211.75;5033303;28;20091;-60
2024/02/07 11:43:49;;;;;;;0.30;0.30;;;;;;;5.52;100.00;98204.22;5034008;28;20121;-59
2024/02/07 11:46:17;;;;;;;0.40;0.40;;;;;;;5.33;100.00;98212.31;5011677;28;20136;-59
2024/02/07 11:48:44;;;;;;;0.30;0.30;;;;;;;5.45;100.00;98214.16;5040463;28;20055;-59
2024/02/07 11:51:12;;;;;;;0.32;0.32;;;;;;;5.37;100.00;98218.00;5034857;28;20037;-59
2024/02/07 11:53:40;;;;;;;0.40;0.40;;;;;;;5.21;100.00;98224.81;5040839;28;20044;-59
2024/02/07 11:56:12;;;;;;;0.40;0.40;;;;;;;5.24;100.00;98221.72;5036744;28;20132;-59
2024/02/07 11:58:41;;;;;;;0.40;0.40;;;;;;;4.91;100.00;98209.78;5023409;28;20056;-59
2024/02/07 12:01:09;;;;;;;0.40;0.40;;;;;;;5.04;100.00;98219.41;5028336;28;20523;-59
2024/02/07 12:03:38;;;;;;;0.45;0.45;;;;;;;5.12;100.00;98223.56;5038311;28;20064;-59
2024/02/07 12:06:08;;;;;;;0.30;0.30;;;;;;;5.12;100.00;98224.38;5032079;28;20045;-59
2024/02/07 12:08:36;;;;;;;0.40;0.40;;;;;;;4.85;100.00;98218.69;5035186;28;20052;-59
2024/02/07 12:11:04;;;;;;;0.30;0.30;;;;;;;4.80;100.00;98226.53;5033134;28;20305;-59
2024/02/07 12:13:32;;;;;;;0.50;0.50;;;;;;;4.75;100.00;98223.75;5043572;28;20420;-59
2024/02/07 12:16:00;;;;;;;0.30;0.30;;;;;;;4.88;100.00;98228.84;5024086;28;20044;-59
2024/02/07 12:18:27;;;;;;;0.40;0.40;;;;;;;4.84;100.00;98234.84;5034370;28;20048;-59
2024/02/07 12:21:00;;;;;;;0.40;0.40;;;;;;;4.62;100.00;98237.22;5031500;28;20052;-60
2024/02/07 12:23:27;;;;;;;0.43;0.43;;;;;;;4.64;100.00;98238.66;5031770;28;20051;-59
2024/02/07 12:25:58;;;;;;;0.40;0.40;;;;;;;4.63;100.00;98244.16;5030820;28;20045;-59
2024/02/07 12:28:26;;;;;;;0.40;0.40;;;;;;;4.57;100.00;98243.25;5035505;28;20550;-59
2024/02/07 12:30:56;;;;;;;0.47;0.47;;;;;;;4.71;100.00;98249.94;5036479;28;20490;-59
2024/02/07 12:33:23;;;;;;;0.50;0.50;;;;;;;4.71;100.00;98249.13;5037072;28;20052;-59
2024/02/07 12:35:51;;;;;;;0.40;0.40;;;;;;;4.54;100.00;98244.50;5034371;28;20103;-59
2024/02/07 12:38:18;;;;;;;0.40;0.40;;;;;;;4.53;100.00;98250.84;5037618;28;20048;-59
2024/02/07 12:40:47;;;;;;;0.40;0.40;;;;;;;4.54;100.00;98247.16;5021161;28;20337;-59
2024/02/07 12:43:16;;;;;;;0.40;0.40;;;;;;;4.50;100.00;98248.63;5022699;28;20040;-59